createdAt,value
2023-07-21T00:00:01.070Z,15.1
2023-07-21T00:05:00.586Z,15.1
2023-07-21T00:10:00.683Z,15.1
2023-07-21T00:15:01.135Z,15.1
2023-07-21T00:20:03.363Z,15.2
2023-07-21T00:25:00.589Z,15.1
2023-07-21T00:30:00.895Z,15.1
2023-07-21T00:35:02.696Z,15.1
2023-07-21T00:40:01.079Z,15.1
2023-07-21T00:45:00.914Z,15.2
2023-07-21T00:50:01.375Z,15.2
2023-07-21T00:55:00.834Z,15.1
2023-07-21T01:00:00.850Z,15.2
2023-07-21T01:05:00.734Z,15.0
2023-07-21T01:10:01.601Z,15.1
2023-07-21T01:15:06.622Z,15.0
2023-07-21T01:20:02.085Z,14.9
2023-07-21T01:25:10.777Z,14.9
2023-07-21T01:30:01.082Z,15.0
2023-07-21T01:35:01.945Z,15.0
2023-07-21T01:40:01.539Z,15.1
2023-07-21T01:45:01.277Z,15.0
2023-07-21T01:50:01.820Z,15.2
2023-07-21T01:55:08.569Z,15.1
2023-07-21T02:00:02.046Z,15.1
2023-07-21T02:05:01.321Z,15.0
2023-07-21T02:10:00.612Z,15.1
2023-07-21T02:15:00.970Z,15.1
2023-07-21T02:20:00.948Z,15.1
2023-07-21T02:25:01.061Z,15.2
2023-07-21T02:30:01.158Z,15.2
2023-07-21T02:35:00.853Z,15.3
2023-07-21T02:40:00.897Z,15.3
2023-07-21T02:45:00.693Z,15.3
2023-07-21T02:50:01.023Z,15.4
2023-07-21T02:55:00.901Z,15.3
2023-07-21T03:00:01.019Z,15.4
2023-07-21T03:05:01.701Z,15.7
2023-07-21T03:10:01.216Z,15.6
2023-07-21T03:15:00.669Z,15.5
2023-07-21T03:20:00.566Z,15.5
2023-07-21T03:25:00.706Z,15.6
2023-07-21T03:30:01.228Z,15.7
2023-07-21T03:35:00.712Z,15.8
2023-07-21T03:40:01.491Z,15.9
2023-07-21T03:45:01.803Z,16.0
2023-07-21T03:50:01.113Z,16.1
2023-07-21T03:55:01.021Z,15.9
2023-07-21T04:00:00.576Z,15.8
2023-07-21T04:05:00.836Z,16.0
2023-07-21T04:10:00.656Z,16.0
2023-07-21T04:15:00.872Z,16.1
2023-07-21T04:20:00.639Z,16.1
2023-07-21T04:25:00.756Z,16.2
2023-07-21T04:30:00.902Z,15.7
2023-07-21T04:35:02.216Z,15.9
2023-07-21T04:40:00.984Z,16.0
2023-07-21T04:45:00.743Z,16.0
2023-07-21T04:50:01.079Z,16.3
2023-07-21T04:55:00.620Z,16.3
2023-07-21T05:00:01.626Z,16.3
2023-07-21T05:05:00.618Z,16.9
2023-07-21T05:10:01.138Z,16.9
2023-07-21T05:15:00.621Z,17.1
2023-07-21T05:20:01.222Z,17.5
2023-07-21T05:25:00.822Z,17.5
2023-07-21T05:30:00.964Z,17.6
2023-07-21T05:35:00.644Z,17.8
2023-07-21T05:40:00.765Z,18.5
2023-07-21T05:45:00.883Z,18.3
2023-07-21T05:50:00.690Z,18.6
2023-07-21T05:55:00.650Z,18.9
2023-07-21T06:00:01.269Z,19.0
2023-07-21T06:05:00.673Z,19.0
2023-07-21T06:10:00.898Z,18.6
2023-07-21T06:15:00.593Z,18.8
2023-07-21T06:20:01.734Z,18.9
2023-07-21T06:25:00.586Z,19.1
2023-07-21T06:30:00.791Z,19.2
2023-07-21T06:35:00.631Z,19.1
2023-07-21T06:40:00.963Z,19.2
2023-07-21T06:45:00.908Z,19.6
2023-07-21T06:50:00.702Z,19.5
2023-07-21T06:55:01.075Z,19.7
2023-07-21T07:00:00.610Z,19.6
2023-07-21T07:05:00.923Z,19.5
2023-07-21T07:10:00.762Z,19.7
2023-07-21T07:15:00.706Z,19.9
2023-07-21T07:20:00.621Z,20.0
2023-07-21T07:25:03.733Z,19.8
2023-07-21T07:30:00.629Z,20.1
2023-07-21T07:35:00.699Z,20.4
2023-07-21T07:40:00.856Z,20.4
2023-07-21T07:45:00.719Z,20.6
2023-07-21T07:50:00.689Z,20.8
2023-07-21T07:55:00.673Z,20.9
2023-07-21T08:00:00.652Z,21.1
2023-07-21T08:05:00.793Z,21.1
2023-07-21T08:10:00.640Z,21.4
2023-07-21T08:15:00.702Z,21.7
2023-07-21T08:20:00.612Z,21.7
2023-07-21T08:25:00.717Z,21.2
2023-07-21T08:30:00.612Z,21.7
2023-07-21T08:35:00.822Z,22.1
2023-07-21T08:40:00.930Z,22.8
2023-07-21T08:45:04.293Z,23.1
2023-07-21T08:50:01.105Z,23.4
2023-07-21T08:55:00.777Z,23.9
2023-07-21T09:00:00.637Z,24.5
2023-07-21T09:05:00.855Z,24.8
2023-07-21T09:10:00.579Z,25.1
2023-07-21T09:15:07.013Z,25.8
2023-07-21T09:20:03.955Z,26.0
2023-07-21T09:25:00.953Z,26.6
2023-07-21T09:30:02.998Z,26.6
2023-07-21T09:35:02.184Z,26.5
2023-07-21T09:40:03.117Z,26.5
2023-07-21T09:45:00.885Z,28.2
2023-07-21T09:50:00.694Z,28.5
2023-07-21T09:55:06.833Z,29.1
2023-07-21T10:00:02.692Z,29.1
2023-07-21T10:05:01.193Z,29.4
2023-07-21T10:10:02.078Z,30.6
2023-07-21T10:15:00.660Z,30.4
2023-07-21T10:20:07.257Z,28.9
2023-07-21T10:25:00.758Z,27.2
2023-07-21T10:30:19.448Z,26.2
2023-07-21T10:35:00.680Z,24.2
2023-07-21T10:40:06.605Z,25.7
2023-07-21T10:45:07.728Z,25.6
2023-07-21T10:50:01.012Z,26.6
2023-07-21T10:55:00.703Z,25.9
2023-07-21T11:00:00.686Z,25.9
2023-07-21T11:05:00.743Z,24.9
2023-07-21T11:10:00.602Z,24.0
2023-07-21T11:15:00.742Z,24.5
2023-07-21T11:20:05.463Z,24.5
2023-07-21T11:25:08.846Z,24.0
2023-07-21T11:30:01.446Z,23.2
2023-07-21T11:35:01.360Z,21.6
2023-07-21T11:40:05.697Z,21.8
2023-07-21T11:45:00.842Z,23.5
2023-07-21T11:50:00.688Z,24.6
2023-07-21T11:55:00.769Z,25.4
2023-07-21T12:00:00.610Z,27.1
2023-07-21T12:05:00.742Z,27.6
2023-07-21T12:10:01.177Z,29.0
2023-07-21T12:15:00.679Z,30.2
2023-07-21T12:20:00.847Z,31.5
2023-07-21T12:25:00.668Z,31.5
2023-07-21T12:30:02.203Z,30.7
2023-07-21T12:35:00.676Z,30.8
2023-07-21T12:40:00.864Z,29.1
2023-07-21T12:45:00.627Z,29.0
2023-07-21T12:50:00.659Z,31.2
2023-07-21T12:55:00.655Z,30.2
2023-07-21T13:00:00.636Z,30.0
2023-07-21T13:05:00.936Z,29.4
2023-07-21T13:10:00.825Z,29.3
2023-07-21T13:15:00.972Z,28.5
2023-07-21T13:20:00.614Z,27.8
2023-07-21T13:25:00.887Z,29.0
2023-07-21T13:30:00.617Z,28.9
2023-07-21T13:35:01.172Z,29.2
2023-07-21T13:40:00.768Z,28.3
2023-07-21T13:45:00.677Z,29.8
2023-07-21T13:50:00.938Z,30.4
2023-07-21T13:55:00.692Z,30.0
2023-07-21T14:00:00.866Z,30.2
2023-07-21T14:05:00.664Z,31.4
2023-07-21T14:10:00.871Z,31.4
2023-07-21T14:15:00.718Z,30.9
2023-07-21T14:20:01.324Z,30.6
2023-07-21T14:25:00.882Z,30.3
2023-07-21T14:30:00.682Z,30.0
2023-07-21T14:35:00.670Z,29.6
2023-07-21T14:40:00.655Z,28.1
2023-07-21T14:45:00.623Z,26.7
2023-07-21T14:50:01.192Z,26.6
2023-07-21T14:55:00.836Z,26.8
2023-07-21T15:00:00.693Z,27.1
2023-07-21T15:05:00.659Z,27.8
2023-07-21T15:10:00.608Z,28.0
2023-07-21T15:15:00.969Z,26.9
2023-07-21T15:20:00.629Z,27.8
2023-07-21T15:25:00.759Z,25.8
2023-07-21T15:30:00.824Z,27.2
2023-07-21T15:35:00.645Z,27.2
2023-07-21T15:40:01.147Z,28.8
2023-07-21T15:45:00.681Z,28.1
2023-07-21T15:50:08.540Z,29.2
2023-07-21T15:55:00.623Z,28.9
2023-07-21T16:00:00.722Z,28.2
2023-07-21T16:05:00.954Z,28.1
2023-07-21T16:10:01.414Z,27.4
2023-07-21T16:15:01.120Z,26.5
2023-07-21T16:20:01.049Z,27.5
2023-07-21T16:25:00.909Z,26.0
2023-07-21T16:30:00.970Z,26.0
2023-07-21T16:35:00.648Z,25.4
2023-07-21T16:40:00.866Z,25.5
2023-07-21T16:45:00.968Z,25.0
2023-07-21T16:50:00.868Z,25.0
2023-07-21T16:55:00.688Z,24.2
2023-07-21T17:00:01.244Z,23.0
2023-07-21T17:05:01.285Z,22.6
2023-07-21T17:10:00.689Z,22.3
2023-07-21T17:15:00.818Z,22.4
2023-07-21T17:20:00.669Z,21.7
2023-07-21T17:25:00.726Z,21.4
2023-07-21T17:30:00.614Z,21.0
2023-07-21T17:35:00.748Z,20.8
2023-07-21T17:40:00.687Z,20.6
2023-07-21T17:45:00.942Z,20.2
2023-07-21T17:50:00.603Z,20.2
2023-07-21T17:55:00.923Z,20.0
2023-07-21T18:00:01.030Z,19.9
2023-07-21T18:05:01.116Z,19.5
2023-07-21T18:10:00.794Z,19.4
2023-07-21T18:15:00.907Z,19.4
2023-07-21T18:20:00.882Z,19.1
2023-07-21T18:25:01.065Z,19.1
2023-07-21T18:30:00.589Z,19.0
2023-07-21T18:35:01.821Z,18.9
2023-07-21T18:40:02.755Z,18.8
2023-07-21T18:45:00.914Z,18.9
2023-07-21T18:50:00.775Z,18.7
2023-07-21T18:55:02.798Z,18.6
2023-07-21T19:00:00.553Z,18.5
2023-07-21T19:05:00.731Z,18.5
2023-07-21T19:10:02.540Z,18.8
2023-07-21T19:15:00.940Z,18.7
2023-07-21T19:20:00.652Z,18.9
2023-07-21T19:25:01.014Z,18.7
2023-07-21T19:30:00.996Z,18.5
2023-07-21T19:35:00.653Z,18.5
2023-07-21T19:40:00.670Z,18.3
2023-07-21T19:45:00.754Z,18.5
2023-07-21T19:50:00.582Z,18.5
2023-07-21T19:55:00.696Z,18.5
2023-07-21T20:00:00.993Z,18.4
2023-07-21T20:05:17.739Z,18.3
2023-07-21T20:10:00.837Z,18.2
2023-07-21T20:15:01.096Z,18.2
2023-07-21T20:20:00.618Z,17.9
2023-07-21T20:25:01.107Z,17.9
2023-07-21T20:30:00.766Z,18.2
2023-07-21T20:35:00.929Z,17.8
2023-07-21T20:40:00.679Z,17.8
2023-07-21T20:45:00.691Z,17.7
2023-07-21T20:50:00.660Z,17.9
2023-07-21T20:55:00.697Z,17.9
2023-07-21T21:00:00.866Z,17.4
2023-07-21T21:05:00.989Z,17.4
2023-07-21T21:10:00.709Z,17.5
2023-07-21T21:15:01.700Z,17.2
2023-07-21T21:20:00.724Z,17.4
2023-07-21T21:25:00.751Z,17.1
2023-07-21T21:30:00.896Z,17.3
2023-07-21T21:35:00.657Z,17.3
2023-07-21T21:40:00.633Z,17.1
2023-07-21T21:45:00.949Z,17.1
2023-07-21T21:50:00.815Z,16.9
2023-07-21T21:55:00.679Z,16.8
2023-07-21T22:00:00.555Z,16.7
2023-07-21T22:05:00.705Z,16.6
2023-07-21T22:10:00.894Z,16.4
2023-07-21T22:15:00.677Z,16.2
2023-07-21T22:20:10.481Z,16.3
2023-07-21T22:25:00.629Z,16.1
2023-07-21T22:30:00.610Z,16.0
2023-07-21T22:35:01.057Z,16.0
2023-07-21T22:40:00.611Z,15.9
2023-07-21T22:45:00.880Z,15.7
2023-07-21T22:50:01.041Z,15.9
2023-07-21T22:55:00.906Z,15.7
2023-07-21T23:00:00.697Z,15.7
2023-07-21T23:05:00.866Z,15.5
2023-07-21T23:10:00.614Z,15.4
2023-07-21T23:15:00.770Z,15.4
2023-07-21T23:20:00.634Z,15.5
2023-07-21T23:25:00.811Z,15.4
2023-07-21T23:30:00.761Z,15.3
2023-07-21T23:35:00.709Z,15.3
2023-07-21T23:40:01.138Z,15.1
2023-07-21T23:45:00.797Z,15.2
2023-07-21T23:50:00.685Z,15.0
2023-07-21T23:55:00.645Z,14.9
